sensor_id;sensor_type;location;lat;lon;timestamp;pressure;altitude;pressure_sealevel;temperature;humidity
19114;BME280;9689;51.052;13.772;2022-10-16T00:02:51;100129.72;;;13.97;88.62
19114;BME280;9689;51.052;13.772;2022-10-16T00:07:52;100127.34;;;13.91;88.45
19114;BME280;9689;51.052;13.772;2022-10-16T00:12:54;100129.22;;;13.88;89.11
19114;BME280;9689;51.052;13.772;2022-10-16T00:17:57;100143.34;;;13.83;89.30
19114;BME280;9689;51.052;13.772;2022-10-16T00:22:58;100153.03;;;13.81;89.24
19114;BME280;9689;51.052;13.772;2022-10-16T00:28:06;100151.41;;;13.77;89.87
19114;BME280;9689;51.052;13.772;2022-10-16T00:33:14;100142.63;;;13.78;89.97
19114;BME280;9689;51.052;13.772;2022-10-16T00:38:15;100147.78;;;13.81;89.90
19114;BME280;9689;51.052;13.772;2022-10-16T00:43:35;100151.28;;;13.80;89.61
19114;BME280;9689;51.052;13.772;2022-10-16T00:48:39;100160.97;;;13.78;90.11
19114;BME280;9689;51.052;13.772;2022-10-16T00:53:40;100167.06;;;13.79;89.92
19114;BME280;9689;51.052;13.772;2022-10-16T00:58:45;100170.00;;;13.95;89.86
19114;BME280;9689;51.052;13.772;2022-10-16T01:03:48;100172.41;;;14.01;89.54
19114;BME280;9689;51.052;13.772;2022-10-16T01:09:09;100160.72;;;14.09;89.19
19114;BME280;9689;51.052;13.772;2022-10-16T01:14:21;100174.28;;;14.21;88.79
19114;BME280;9689;51.052;13.772;2022-10-16T01:19:38;100169.09;;;14.19;88.80
19114;BME280;9689;51.052;13.772;2022-10-16T01:24:49;100171.38;;;14.28;88.53
19114;BME280;9689;51.052;13.772;2022-10-16T01:29:56;100174.50;;;14.38;87.98
19114;BME280;9689;51.052;13.772;2022-10-16T01:35:03;100179.63;;;14.41;88.27
19114;BME280;9689;51.052;13.772;2022-10-16T01:40:12;100190.03;;;14.44;88.04
19114;BME280;9689;51.052;13.772;2022-10-16T01:45:18;100183.66;;;14.51;87.57
19114;BME280;9689;51.052;13.772;2022-10-16T01:50:21;100192.25;;;14.55;87.40
19114;BME280;9689;51.052;13.772;2022-10-16T01:55:24;100180.84;;;14.56;87.32
19114;BME280;9689;51.052;13.772;2022-10-16T02:00:29;100178.06;;;14.60;87.26
19114;BME280;9689;51.052;13.772;2022-10-16T02:05:37;100188.59;;;14.59;87.12
19114;BME280;9689;51.052;13.772;2022-10-16T02:10:40;100187.53;;;14.64;86.64
19114;BME280;9689;51.052;13.772;2022-10-16T02:15:47;100186.53;;;14.67;86.55
19114;BME280;9689;51.052;13.772;2022-10-16T02:20:50;100191.91;;;14.64;87.06
19114;BME280;9689;51.052;13.772;2022-10-16T02:25:58;100195.59;;;14.60;86.97
19114;BME280;9689;51.052;13.772;2022-10-16T02:31:03;100202.91;;;14.74;86.67
19114;BME280;9689;51.052;13.772;2022-10-16T02:36:12;100190.84;;;14.69;86.66
19114;BME280;9689;51.052;13.772;2022-10-16T02:41:16;100186.25;;;14.75;86.77
19114;BME280;9689;51.052;13.772;2022-10-16T02:46:19;100199.19;;;14.79;86.75
19114;BME280;9689;51.052;13.772;2022-10-16T02:51:20;100195.44;;;14.86;86.20
19114;BME280;9689;51.052;13.772;2022-10-16T02:56:21;100174.53;;;14.83;86.70
19114;BME280;9689;51.052;13.772;2022-10-16T03:01:24;100188.56;;;14.82;86.46
19114;BME280;9689;51.052;13.772;2022-10-16T03:06:25;100178.63;;;14.90;86.28
19114;BME280;9689;51.052;13.772;2022-10-16T03:11:26;100182.16;;;14.89;86.25
19114;BME280;9689;51.052;13.772;2022-10-16T03:16:29;100190.28;;;14.83;86.28
19114;BME280;9689;51.052;13.772;2022-10-16T03:21:30;100187.91;;;14.77;86.65
19114;BME280;9689;51.052;13.772;2022-10-16T03:26:30;100193.31;;;14.73;86.66
19114;BME280;9689;51.052;13.772;2022-10-16T03:31:33;100205.16;;;14.61;87.06
19114;BME280;9689;51.052;13.772;2022-10-16T03:36:34;100192.19;;;14.56;87.33
19114;BME280;9689;51.052;13.772;2022-10-16T03:41:35;100206.28;;;14.54;87.25
19114;BME280;9689;51.052;13.772;2022-10-16T03:46:37;100210.84;;;14.49;87.29
19114;BME280;9689;51.052;13.772;2022-10-16T03:51:38;100215.38;;;14.43;87.47
19114;BME280;9689;51.052;13.772;2022-10-16T03:56:38;100221.75;;;14.36;88.19
19114;BME280;9689;51.052;13.772;2022-10-16T04:01:41;100228.78;;;14.36;88.64
19114;BME280;9689;51.052;13.772;2022-10-16T04:06:41;100222.69;;;14.35;88.36
19114;BME280;9689;51.052;13.772;2022-10-16T04:11:42;100231.09;;;14.45;88.22
19114;BME280;9689;51.052;13.772;2022-10-16T04:16:44;100238.34;;;14.37;88.40
19114;BME280;9689;51.052;13.772;2022-10-16T04:21:45;100243.53;;;14.38;88.30
19114;BME280;9689;51.052;13.772;2022-10-16T04:26:46;100246.88;;;14.42;88.53
19114;BME280;9689;51.052;13.772;2022-10-16T04:31:48;100243.31;;;14.45;87.85
19114;BME280;9689;51.052;13.772;2022-10-16T04:36:49;100236.13;;;14.51;87.84
19114;BME280;9689;51.052;13.772;2022-10-16T04:41:50;100250.28;;;14.46;87.79
19114;BME280;9689;51.052;13.772;2022-10-16T04:46:52;100245.31;;;14.38;88.43
19114;BME280;9689;51.052;13.772;2022-10-16T04:51:53;100252.25;;;14.39;88.37
19114;BME280;9689;51.052;13.772;2022-10-16T04:56:54;100256.56;;;14.40;87.97
19114;BME280;9689;51.052;13.772;2022-10-16T05:01:56;100244.38;;;14.39;88.27
19114;BME280;9689;51.052;13.772;2022-10-16T05:06:57;100247.75;;;14.42;88.15
19114;BME280;9689;51.052;13.772;2022-10-16T05:11:58;100255.41;;;14.49;87.74
19114;BME280;9689;51.052;13.772;2022-10-16T05:17:00;100255.72;;;14.39;88.01
19114;BME280;9689;51.052;13.772;2022-10-16T05:22:01;100260.19;;;14.37;88.19
19114;BME280;9689;51.052;13.772;2022-10-16T05:27:02;100262.84;;;14.36;88.68
19114;BME280;9689;51.052;13.772;2022-10-16T05:32:04;100265.41;;;14.37;88.38
19114;BME280;9689;51.052;13.772;2022-10-16T05:37:05;100272.44;;;14.37;88.62
19114;BME280;9689;51.052;13.772;2022-10-16T05:42:06;100267.25;;;14.35;88.51
19114;BME280;9689;51.052;13.772;2022-10-16T05:47:08;100277.63;;;14.38;88.63
19114;BME280;9689;51.052;13.772;2022-10-16T05:52:11;100279.81;;;14.51;87.87
19114;BME280;9689;51.052;13.772;2022-10-16T05:57:12;100298.81;;;14.57;87.74
19114;BME280;9689;51.052;13.772;2022-10-16T06:02:14;100316.44;;;14.54;87.76
19114;BME280;9689;51.052;13.772;2022-10-16T06:07:15;100302.13;;;14.62;87.84
19114;BME280;9689;51.052;13.772;2022-10-16T06:12:16;100304.78;;;14.84;87.52
19114;BME280;9689;51.052;13.772;2022-10-16T06:17:19;100312.78;;;14.81;86.84
19114;BME280;9689;51.052;13.772;2022-10-16T06:22:20;100326.81;;;14.80;87.08
19114;BME280;9689;51.052;13.772;2022-10-16T06:27:20;100331.50;;;14.95;86.73
19114;BME280;9689;51.052;13.772;2022-10-16T06:32:23;100336.22;;;15.09;86.35
19114;BME280;9689;51.052;13.772;2022-10-16T06:37:24;100342.81;;;15.19;85.80
19114;BME280;9689;51.052;13.772;2022-10-16T06:42:25;100338.75;;;15.34;85.10
19114;BME280;9689;51.052;13.772;2022-10-16T06:47:29;100342.25;;;15.57;84.75
19114;BME280;9689;51.052;13.772;2022-10-16T06:52:30;100357.59;;;15.89;84.12
19114;BME280;9689;51.052;13.772;2022-10-16T06:57:31;100365.16;;;16.19;83.17
19114;BME280;9689;51.052;13.772;2022-10-16T07:02:33;100364.00;;;16.24;82.30
19114;BME280;9689;51.052;13.772;2022-10-16T07:07:34;100381.63;;;16.22;82.29
19114;BME280;9689;51.052;13.772;2022-10-16T07:12:35;100378.81;;;16.27;82.65
19114;BME280;9689;51.052;13.772;2022-10-16T07:17:37;100364.81;;;16.47;81.59
19114;BME280;9689;51.052;13.772;2022-10-16T07:22:38;100385.34;;;16.79;79.59
19114;BME280;9689;51.052;13.772;2022-10-16T07:27:39;100396.91;;;16.95;79.20
19114;BME280;9689;51.052;13.772;2022-10-16T07:32:41;100410.06;;;16.95;79.79
19114;BME280;9689;51.052;13.772;2022-10-16T07:37:44;100420.69;;;16.94;79.44
19114;BME280;9689;51.052;13.772;2022-10-16T07:42:45;100431.25;;;16.92;79.67
19114;BME280;9689;51.052;13.772;2022-10-16T07:47:47;100434.47;;;16.99;79.80
19114;BME280;9689;51.052;13.772;2022-10-16T07:52:48;100437.81;;;17.03;79.29
19114;BME280;9689;51.052;13.772;2022-10-16T07:57:49;100440.09;;;17.10;79.05
19114;BME280;9689;51.052;13.772;2022-10-16T08:02:51;100437.22;;;17.35;78.38
19114;BME280;9689;51.052;13.772;2022-10-16T08:07:52;100433.47;;;17.78;77.53
19114;BME280;9689;51.052;13.772;2022-10-16T08:12:53;100412.78;;;17.88;76.25
19114;BME280;9689;51.052;13.772;2022-10-16T08:17:57;100411.00;;;18.07;75.60
19114;BME280;9689;51.052;13.772;2022-10-16T08:22:58;100425.69;;;17.94;76.28
19114;BME280;9689;51.052;13.772;2022-10-16T08:27:59;100416.44;;;17.86;76.35
19114;BME280;9689;51.052;13.772;2022-10-16T08:33:02;100425.31;;;18.02;75.84
19114;BME280;9689;51.052;13.772;2022-10-16T08:38:03;100425.53;;;18.33;75.12
19114;BME280;9689;51.052;13.772;2022-10-16T08:43:21;100443.00;;;18.71;74.05
19114;BME280;9689;51.052;13.772;2022-10-16T08:48:33;100436.16;;;18.84;73.24
19114;BME280;9689;51.052;13.772;2022-10-16T08:53:41;100430.56;;;18.73;73.32
19114;BME280;9689;51.052;13.772;2022-10-16T08:58:45;100429.03;;;18.69;73.00
19114;BME280;9689;51.052;13.772;2022-10-16T09:04:04;100425.94;;;18.78;72.31
19114;BME280;9689;51.052;13.772;2022-10-16T09:09:27;100420.47;;;18.63;72.81
19114;BME280;9689;51.052;13.772;2022-10-16T09:14:40;100417.81;;;18.63;72.88
19114;BME280;9689;51.052;13.772;2022-10-16T09:19:51;100416.13;;;18.62;73.47
19114;BME280;9689;51.052;13.772;2022-10-16T09:24:55;100430.88;;;18.84;72.89
19114;BME280;9689;51.052;13.772;2022-10-16T09:29:56;100442.06;;;19.22;71.51
19114;BME280;9689;51.052;13.772;2022-10-16T09:35:00;100435.50;;;19.45;70.35
19114;BME280;9689;51.052;13.772;2022-10-16T09:40:01;100434.66;;;19.44;70.08
19114;BME280;9689;51.052;13.772;2022-10-16T09:45:21;100443.09;;;19.84;69.02
19114;BME280;9689;51.052;13.772;2022-10-16T09:50:26;100450.22;;;20.14;68.38
19114;BME280;9689;51.052;13.772;2022-10-16T09:55:47;100438.34;;;20.21;67.38
19114;BME280;9689;51.052;13.772;2022-10-16T10:01:00;100446.34;;;20.35;67.56
19114;BME280;9689;51.052;13.772;2022-10-16T10:06:16;100455.13;;;20.66;65.27
19114;BME280;9689;51.052;13.772;2022-10-16T10:11:18;100446.22;;;20.97;65.03
19114;BME280;9689;51.052;13.772;2022-10-16T10:16:23;100448.19;;;20.93;64.44
19114;BME280;9689;51.052;13.772;2022-10-16T10:21:25;100467.28;;;20.84;64.24
19114;BME280;9689;51.052;13.772;2022-10-16T10:26:27;100469.06;;;20.69;63.15
19114;BME280;9689;51.052;13.772;2022-10-16T10:31:39;100474.13;;;20.58;63.90
19114;BME280;9689;51.052;13.772;2022-10-16T10:36:48;100474.47;;;20.82;62.72
19114;BME280;9689;51.052;13.772;2022-10-16T10:42:11;100478.25;;;21.36;59.44
19114;BME280;9689;51.052;13.772;2022-10-16T10:47:23;100471.25;;;21.64;59.17
19114;BME280;9689;51.052;13.772;2022-10-16T10:52:42;100478.34;;;22.32;57.92
19114;BME280;9689;51.052;13.772;2022-10-16T10:57:54;100473.28;;;22.41;57.08
19114;BME280;9689;51.052;13.772;2022-10-16T11:03:02;100478.84;;;22.51;54.57
19114;BME280;9689;51.052;13.772;2022-10-16T11:08:13;100479.03;;;21.94;56.79
19114;BME280;9689;51.052;13.772;2022-10-16T11:13:23;100464.59;;;22.12;55.81
19114;BME280;9689;51.052;13.772;2022-10-16T11:18:30;100478.31;;;22.05;55.95
19114;BME280;9689;51.052;13.772;2022-10-16T11:23:38;100473.97;;;22.04;56.00
19114;BME280;9689;51.052;13.772;2022-10-16T11:28:45;100479.53;;;22.40;54.54
19114;BME280;9689;51.052;13.772;2022-10-16T11:33:52;100475.16;;;22.26;52.91
19114;BME280;9689;51.052;13.772;2022-10-16T11:39:00;100484.34;;;22.08;53.61
19114;BME280;9689;51.052;13.772;2022-10-16T11:44:16;100487.16;;;22.32;53.19
19114;BME280;9689;51.052;13.772;2022-10-16T11:49:21;100491.97;;;22.13;53.76
19114;BME280;9689;51.052;13.772;2022-10-16T11:54:30;100492.44;;;22.05;53.66
19114;BME280;9689;51.052;13.772;2022-10-16T11:59:37;100491.81;;;22.16;53.79
19114;BME280;9689;51.052;13.772;2022-10-16T12:04:43;100497.13;;;22.16;54.23
19114;BME280;9689;51.052;13.772;2022-10-16T12:09:48;100498.41;;;22.23;53.68
19114;BME280;9689;51.052;13.772;2022-10-16T12:15:00;100494.16;;;22.06;53.90
19114;BME280;9689;51.052;13.772;2022-10-16T12:20:25;100493.03;;;22.37;53.71
19114;BME280;9689;51.052;13.772;2022-10-16T12:25:29;100485.09;;;22.50;52.77
19114;BME280;9689;51.052;13.772;2022-10-16T12:30:33;100490.44;;;22.23;53.48
19114;BME280;9689;51.052;13.772;2022-10-16T12:35:57;100503.63;;;22.24;53.42
19114;BME280;9689;51.052;13.772;2022-10-16T12:41:48;100498.31;;;22.24;52.94
19114;BME280;9689;51.052;13.772;2022-10-16T12:47:03;100507.22;;;22.23;53.85
19114;BME280;9689;51.052;13.772;2022-10-16T12:52:25;100517.41;;;22.44;53.21
19114;BME280;9689;51.052;13.772;2022-10-16T12:58:04;100512.72;;;22.47;52.42
19114;BME280;9689;51.052;13.772;2022-10-16T13:09:11;100514.19;;;22.39;52.73
19114;BME280;9689;51.052;13.772;2022-10-16T13:14:36;100523.44;;;22.46;52.54
19114;BME280;9689;51.052;13.772;2022-10-16T13:19:54;100513.66;;;22.34;52.57
19114;BME280;9689;51.052;13.772;2022-10-16T13:25:13;100519.03;;;22.32;52.75
19114;BME280;9689;51.052;13.772;2022-10-16T13:40:31;100515.38;;;22.20;53.57
19114;BME280;9689;51.052;13.772;2022-10-16T13:45:35;100518.84;;;22.08;54.21
19114;BME280;9689;51.052;13.772;2022-10-16T13:50:36;100524.94;;;21.82;56.43
19114;BME280;9689;51.052;13.772;2022-10-16T13:55:37;100541.84;;;21.22;60.09
19114;BME280;9689;51.052;13.772;2022-10-16T14:00:40;100538.59;;;21.47;59.84
19114;BME280;9689;51.052;13.772;2022-10-16T14:05:44;100549.44;;;21.85;59.27
19114;BME280;9689;51.052;13.772;2022-10-16T14:10:49;100553.06;;;21.84;59.15
19114;BME280;9689;51.052;13.772;2022-10-16T14:15:52;100550.13;;;21.75;59.29
19114;BME280;9689;51.052;13.772;2022-10-16T14:20:54;100556.75;;;21.67;60.18
19114;BME280;9689;51.052;13.772;2022-10-16T14:26:12;100554.97;;;21.68;60.03
19114;BME280;9689;51.052;13.772;2022-10-16T14:31:27;100559.50;;;21.66;59.96
19114;BME280;9689;51.052;13.772;2022-10-16T14:36:29;100550.50;;;21.54;60.73
19114;BME280;9689;51.052;13.772;2022-10-16T14:41:32;100556.94;;;21.50;60.78
19114;BME280;9689;51.052;13.772;2022-10-16T14:46:37;100552.88;;;21.44;61.84
19114;BME280;9689;51.052;13.772;2022-10-16T14:51:39;100567.72;;;21.33;62.11
19114;BME280;9689;51.052;13.772;2022-10-16T14:56:46;100570.16;;;21.22;63.88
19114;BME280;9689;51.052;13.772;2022-10-16T15:01:50;100573.03;;;21.03;65.47
19114;BME280;9689;51.052;13.772;2022-10-16T15:06:51;100585.19;;;20.91;66.01
19114;BME280;9689;51.052;13.772;2022-10-16T15:11:52;100591.03;;;20.82;68.48
19114;BME280;9689;51.052;13.772;2022-10-16T15:16:54;100589.97;;;20.70;69.60
19114;BME280;9689;51.052;13.772;2022-10-16T15:21:55;100603.13;;;20.56;70.44
19114;BME280;9689;51.052;13.772;2022-10-16T15:26:58;100614.09;;;20.32;71.07
19114;BME280;9689;51.052;13.772;2022-10-16T15:32:01;100626.63;;;20.13;71.45
19114;BME280;9689;51.052;13.772;2022-10-16T15:37:03;100627.06;;;20.05;71.85
19114;BME280;9689;51.052;13.772;2022-10-16T15:42:04;100630.53;;;19.90;72.85
19114;BME280;9689;51.052;13.772;2022-10-16T15:47:07;100647.97;;;19.77;72.66
19114;BME280;9689;51.052;13.772;2022-10-16T15:52:08;100648.94;;;19.59;74.74
19114;BME280;9689;51.052;13.772;2022-10-16T15:57:09;100657.06;;;19.54;74.98
19114;BME280;9689;51.052;13.772;2022-10-16T16:02:11;100653.59;;;19.36;76.37
19114;BME280;9689;51.052;13.772;2022-10-16T16:07:12;100654.28;;;19.23;77.41
19114;BME280;9689;51.052;13.772;2022-10-16T16:12:13;100664.38;;;18.97;77.47
19114;BME280;9689;51.052;13.772;2022-10-16T16:17:16;100673.09;;;18.80;77.91
19114;BME280;9689;51.052;13.772;2022-10-16T16:22:17;100671.69;;;18.73;77.73
19114;BME280;9689;51.052;13.772;2022-10-16T16:27:18;100678.88;;;18.51;78.30
19114;BME280;9689;51.052;13.772;2022-10-16T16:32:21;100690.16;;;18.35;79.90
19114;BME280;9689;51.052;13.772;2022-10-16T16:37:22;100707.09;;;18.11;80.79
19114;BME280;9689;51.052;13.772;2022-10-16T16:42:24;100716.75;;;17.92;81.18
19114;BME280;9689;51.052;13.772;2022-10-16T16:47:26;100718.25;;;17.77;82.14
19114;BME280;9689;51.052;13.772;2022-10-16T16:52:29;100740.56;;;17.68;82.30
19114;BME280;9689;51.052;13.772;2022-10-16T16:57:29;100750.81;;;17.54;83.42
19114;BME280;9689;51.052;13.772;2022-10-16T17:02:32;100743.34;;;17.43;83.27
19114;BME280;9689;51.052;13.772;2022-10-16T17:07:33;100755.44;;;17.27;83.98
19114;BME280;9689;51.052;13.772;2022-10-16T17:12:35;100779.66;;;17.15;84.15
19114;BME280;9689;51.052;13.772;2022-10-16T17:17:37;100780.22;;;17.00;85.18
19114;BME280;9689;51.052;13.772;2022-10-16T17:22:39;100781.66;;;16.86;85.71
19114;BME280;9689;51.052;13.772;2022-10-16T17:27:40;100787.28;;;16.76;86.29
19114;BME280;9689;51.052;13.772;2022-10-16T17:32:42;100797.22;;;16.69;86.29
19114;BME280;9689;51.052;13.772;2022-10-16T17:37:43;100795.63;;;16.63;86.65
19114;BME280;9689;51.052;13.772;2022-10-16T17:42:44;100798.72;;;16.51;87.22
19114;BME280;9689;51.052;13.772;2022-10-16T17:47:46;100809.47;;;16.45;87.43
19114;BME280;9689;51.052;13.772;2022-10-16T17:52:47;100816.66;;;16.40;87.81
19114;BME280;9689;51.052;13.772;2022-10-16T17:57:47;100825.41;;;16.40;87.58
19114;BME280;9689;51.052;13.772;2022-10-16T18:02:50;100834.59;;;16.29;87.97
19114;BME280;9689;51.052;13.772;2022-10-16T18:07:51;100849.25;;;16.36;87.92
19114;BME280;9689;51.052;13.772;2022-10-16T18:12:52;100853.06;;;16.27;87.87
19114;BME280;9689;51.052;13.772;2022-10-16T18:17:54;100859.72;;;16.37;87.59
19114;BME280;9689;51.052;13.772;2022-10-16T18:22:55;100859.66;;;16.39;87.60
19114;BME280;9689;51.052;13.772;2022-10-16T18:27:56;100868.34;;;16.41;88.14
19114;BME280;9689;51.052;13.772;2022-10-16T18:32:58;100884.97;;;16.42;88.08
19114;BME280;9689;51.052;13.772;2022-10-16T18:37:59;100886.13;;;16.34;88.45
19114;BME280;9689;51.052;13.772;2022-10-16T18:43:00;100895.81;;;16.32;88.32
19114;BME280;9689;51.052;13.772;2022-10-16T18:48:02;100883.66;;;16.30;87.98
19114;BME280;9689;51.052;13.772;2022-10-16T18:53:03;100896.00;;;16.28;87.95
19114;BME280;9689;51.052;13.772;2022-10-16T18:58:04;100891.34;;;16.09;88.68
19114;BME280;9689;51.052;13.772;2022-10-16T19:03:06;100887.31;;;15.99;88.91
19114;BME280;9689;51.052;13.772;2022-10-16T19:08:07;100876.53;;;15.80;89.18
19114;BME280;9689;51.052;13.772;2022-10-16T19:13:08;100879.44;;;15.71;89.99
19114;BME280;9689;51.052;13.772;2022-10-16T19:18:11;100882.84;;;15.75;89.82
19114;BME280;9689;51.052;13.772;2022-10-16T19:23:12;100895.13;;;15.74;90.11
19114;BME280;9689;51.052;13.772;2022-10-16T19:28:13;100900.22;;;15.79;89.72
19114;BME280;9689;51.052;13.772;2022-10-16T19:33:15;100912.50;;;15.78;90.22
19114;BME280;9689;51.052;13.772;2022-10-16T19:38:16;100924.78;;;15.78;90.55
19114;BME280;9689;51.052;13.772;2022-10-16T19:43:17;100929.28;;;15.74;90.51
19114;BME280;9689;51.052;13.772;2022-10-16T19:48:19;100931.53;;;15.87;89.98
19114;BME280;9689;51.052;13.772;2022-10-16T19:53:26;100934.03;;;15.91;90.03
19114;BME280;9689;51.052;13.772;2022-10-16T19:58:27;100944.56;;;15.90;89.98
19114;BME280;9689;51.052;13.772;2022-10-16T20:03:30;100940.31;;;15.86;90.18
19114;BME280;9689;51.052;13.772;2022-10-16T20:08:31;100936.78;;;15.87;90.00
19114;BME280;9689;51.052;13.772;2022-10-16T20:13:32;100942.09;;;15.85;89.91
19114;BME280;9689;51.052;13.772;2022-10-16T20:18:40;100934.03;;;15.90;90.03
19114;BME280;9689;51.052;13.772;2022-10-16T20:23:41;100932.56;;;15.81;89.19
19114;BME280;9689;51.052;13.772;2022-10-16T20:28:43;100944.84;;;15.82;89.89
19114;BME280;9689;51.052;13.772;2022-10-16T20:33:45;100932.97;;;15.69;89.44
19114;BME280;9689;51.052;13.772;2022-10-16T20:38:46;100944.22;;;15.72;89.37
19114;BME280;9689;51.052;13.772;2022-10-16T20:43:50;100951.84;;;15.81;88.97
19114;BME280;9689;51.052;13.772;2022-10-16T20:48:53;100951.88;;;15.80;89.01
19114;BME280;9689;51.052;13.772;2022-10-16T20:54:10;100953.84;;;15.73;89.29
19114;BME280;9689;51.052;13.772;2022-10-16T20:59:11;100965.31;;;15.71;89.06
19114;BME280;9689;51.052;13.772;2022-10-16T21:04:14;100973.63;;;15.55;89.12
19114;BME280;9689;51.052;13.772;2022-10-16T21:09:15;100981.84;;;15.43;89.47
19114;BME280;9689;51.052;13.772;2022-10-16T21:14:16;100987.44;;;15.33;89.74
19114;BME280;9689;51.052;13.772;2022-10-16T21:19:18;100994.78;;;15.20;90.23
19114;BME280;9689;51.052;13.772;2022-10-16T21:24:19;100995.81;;;15.14;90.21
19114;BME280;9689;51.052;13.772;2022-10-16T21:29:20;100999.56;;;15.06;90.36
19114;BME280;9689;51.052;13.772;2022-10-16T21:34:22;101012.00;;;14.99;90.23
19114;BME280;9689;51.052;13.772;2022-10-16T21:39:23;101011.47;;;14.86;90.48
19114;BME280;9689;51.052;13.772;2022-10-16T21:44:24;101014.41;;;14.74;90.97
19114;BME280;9689;51.052;13.772;2022-10-16T21:49:26;101018.06;;;14.68;90.63
19114;BME280;9689;51.052;13.772;2022-10-16T21:54:27;101016.66;;;14.54;91.35
19114;BME280;9689;51.052;13.772;2022-10-16T21:59:28;101017.44;;;14.57;90.93
19114;BME280;9689;51.052;13.772;2022-10-16T22:04:30;101016.63;;;14.55;90.69
19114;BME280;9689;51.052;13.772;2022-10-16T22:09:31;101008.00;;;14.52;91.11
19114;BME280;9689;51.052;13.772;2022-10-16T22:14:32;101010.66;;;14.49;90.94
19114;BME280;9689;51.052;13.772;2022-10-16T22:19:34;101011.56;;;14.48;90.83
19114;BME280;9689;51.052;13.772;2022-10-16T22:24:36;101016.06;;;14.41;91.02
19114;BME280;9689;51.052;13.772;2022-10-16T22:29:36;101024.78;;;14.41;91.36
19114;BME280;9689;51.052;13.772;2022-10-16T22:34:39;101036.41;;;14.31;91.32
19114;BME280;9689;51.052;13.772;2022-10-16T22:39:39;101047.06;;;14.25;91.92
19114;BME280;9689;51.052;13.772;2022-10-16T22:44:40;101049.00;;;14.15;91.79
19114;BME280;9689;51.052;13.772;2022-10-16T22:49:42;101039.50;;;14.11;91.75
19114;BME280;9689;51.052;13.772;2022-10-16T22:54:43;101030.91;;;14.05;91.33
19114;BME280;9689;51.052;13.772;2022-10-16T22:59:46;101037.13;;;14.01;91.41
19114;BME280;9689;51.052;13.772;2022-10-16T23:04:48;101032.03;;;13.93;91.66
19114;BME280;9689;51.052;13.772;2022-10-16T23:09:49;101042.53;;;13.93;91.42
19114;BME280;9689;51.052;13.772;2022-10-16T23:14:50;101040.00;;;13.90;91.60
19114;BME280;9689;51.052;13.772;2022-10-16T23:19:52;101041.06;;;13.80;91.52
19114;BME280;9689;51.052;13.772;2022-10-16T23:24:53;101049.72;;;13.83;91.30
19114;BME280;9689;51.052;13.772;2022-10-16T23:29:54;101054.91;;;13.86;91.05
19114;BME280;9689;51.052;13.772;2022-10-16T23:34:56;101055.72;;;13.89;91.30
19114;BME280;9689;51.052;13.772;2022-10-16T23:39:57;101064.63;;;13.80;91.35
19114;BME280;9689;51.052;13.772;2022-10-16T23:44:57;101056.88;;;13.75;91.54
19114;BME280;9689;51.052;13.772;2022-10-16T23:50:00;101060.56;;;13.67;91.30
19114;BME280;9689;51.052;13.772;2022-10-16T23:55:01;101061.50;;;13.63;91.47
